createdAt,value
2019-04-06T00:03:20.588Z,11.68
2019-04-06T00:07:24.770Z,11.66
2019-04-06T00:11:28.997Z,11.65
2019-04-06T00:15:33.246Z,11.66
2019-04-06T00:19:37.494Z,11.68
2019-04-06T00:23:41.662Z,11.71
2019-04-06T00:27:45.922Z,11.72
2019-04-06T00:32:07.855Z,11.73
2019-04-06T00:36:12.093Z,11.78
2019-04-06T00:40:16.365Z,11.60
2019-04-06T00:44:20.677Z,11.60
2019-04-06T00:48:25.052Z,11.54
2019-04-06T00:52:29.355Z,11.43
2019-04-06T00:56:33.624Z,11.37
2019-04-06T01:00:38.163Z,11.30
2019-04-06T01:04:42.831Z,11.25
2019-04-06T01:08:47.039Z,11.24
2019-04-06T01:12:51.526Z,11.20
2019-04-06T01:16:55.834Z,11.12
2019-04-06T01:21:00.087Z,11.12
2019-04-06T01:25:04.913Z,11.04
2019-04-06T01:29:09.169Z,11.00
2019-04-06T01:33:13.402Z,11.00
2019-04-06T01:37:17.601Z,11.02
2019-04-06T01:41:21.855Z,11.03
2019-04-06T01:45:26.057Z,11.02
2019-04-06T01:49:30.284Z,11.01
2019-04-06T01:53:34.508Z,10.99
2019-04-06T01:57:38.994Z,10.93
2019-04-06T02:01:51.519Z,10.93
2019-04-06T02:05:55.774Z,10.92
2019-04-06T02:10:00.020Z,10.93
2019-04-06T02:14:04.450Z,10.95
2019-04-06T02:18:09.000Z,10.88
2019-04-06T02:22:13.219Z,10.84
2019-04-06T02:26:29.146Z,10.84
2019-04-06T02:30:33.393Z,10.77
2019-04-06T02:34:55.225Z,10.72
2019-04-06T02:39:18.545Z,10.66
2019-04-06T02:43:28.500Z,10.66
2019-04-06T02:47:32.780Z,10.67
2019-04-06T02:51:36.989Z,10.60
2019-04-06T02:55:42.849Z,10.54
2019-04-06T02:59:47.129Z,10.48
2019-04-06T03:03:51.608Z,10.47
2019-04-06T03:07:55.837Z,10.47
2019-04-06T03:12:00.076Z,10.47
2019-04-06T03:16:04.410Z,10.43
2019-04-06T03:20:08.869Z,10.40
2019-04-06T03:24:13.046Z,10.42
2019-04-06T03:28:17.427Z,10.40
2019-04-06T03:32:21.709Z,10.43
2019-04-06T03:36:25.926Z,10.43
2019-04-06T03:40:30.194Z,10.36
2019-04-06T03:44:34.427Z,10.31
2019-04-06T03:48:39.053Z,10.30
2019-04-06T03:52:43.326Z,10.27
2019-04-06T03:56:47.584Z,10.24
2019-04-06T04:00:52.168Z,10.20
2019-04-06T04:04:56.437Z,10.19
2019-04-06T04:09:00.769Z,10.20
2019-04-06T04:13:05.624Z,10.21
2019-04-06T04:17:09.880Z,10.16
2019-04-06T04:21:14.134Z,10.10
2019-04-06T04:25:18.384Z,10.04
2019-04-06T04:29:22.636Z,10.02
2019-04-06T04:33:26.844Z,10.01
2019-04-06T04:37:31.097Z,10.01
2019-04-06T04:41:35.675Z,10.00
2019-04-06T04:45:40.306Z,9.99
2019-04-06T04:49:44.524Z,10.01
2019-04-06T04:53:48.785Z,10.04
2019-04-06T04:57:53.331Z,10.06
2019-04-06T05:01:57.538Z,10.05
2019-04-06T05:06:01.871Z,10.04
2019-04-06T05:10:06.947Z,10.06
2019-04-06T05:14:47.259Z,10.07
2019-04-06T05:18:51.900Z,10.11
2019-04-06T05:22:56.168Z,10.10
2019-04-06T05:27:00.360Z,10.06
2019-04-06T05:31:04.811Z,10.07
2019-04-06T05:35:09.146Z,10.10
2019-04-06T05:39:13.401Z,10.08
2019-04-06T05:43:17.819Z,10.08
2019-04-06T05:47:22.166Z,10.08
2019-04-06T05:51:27.295Z,10.09
2019-04-06T05:55:31.533Z,10.07
2019-04-06T05:59:35.820Z,10.08
2019-04-06T06:03:41.252Z,10.08
2019-04-06T06:07:45.847Z,10.09
2019-04-06T06:11:50.088Z,10.12
2019-04-06T06:15:54.382Z,10.18
2019-04-06T06:19:58.633Z,10.17
2019-04-06T06:24:02.961Z,10.15
2019-04-06T06:28:14.411Z,10.21
2019-04-06T06:32:13.102Z,10.30
2019-04-06T06:36:17.301Z,10.33
2019-04-06T06:40:21.994Z,10.39
2019-04-06T06:44:26.559Z,10.49
2019-04-06T06:48:30.886Z,10.56
2019-04-06T06:52:35.090Z,10.58
2019-04-06T06:56:39.342Z,10.68
2019-04-06T07:00:44.350Z,10.69
2019-04-06T07:04:49.209Z,10.70
2019-04-06T07:08:53.639Z,10.70
2019-04-06T07:12:57.841Z,10.76
2019-04-06T07:17:02.247Z,10.84
2019-04-06T07:21:06.556Z,10.99
2019-04-06T07:25:12.236Z,11.11
2019-04-06T07:29:16.883Z,11.28
2019-04-06T07:33:21.198Z,11.44
2019-04-06T07:37:25.579Z,11.50
2019-04-06T07:41:29.886Z,11.50
2019-04-06T07:45:34.181Z,11.54
2019-04-06T07:49:38.903Z,11.65
2019-04-06T07:53:43.211Z,11.75
2019-04-06T07:57:47.564Z,11.75
2019-04-06T08:01:51.812Z,11.78
2019-04-06T08:05:55.973Z,11.78
2019-04-06T08:10:00.180Z,11.81
2019-04-06T08:14:04.843Z,11.80
2019-04-06T08:18:09.303Z,11.92
2019-04-06T08:22:13.453Z,11.92
2019-04-06T08:26:17.683Z,12.02
2019-04-06T08:30:21.899Z,12.13
2019-04-06T08:34:26.135Z,12.22
2019-04-06T08:38:30.429Z,12.33
2019-04-06T08:42:34.989Z,12.33
2019-04-06T08:46:39.250Z,12.50
2019-04-06T08:50:43.481Z,12.59
2019-04-06T08:54:48.038Z,12.74
2019-04-06T08:58:52.242Z,12.90
2019-04-06T09:02:56.904Z,12.88
2019-04-06T09:07:01.089Z,12.97
2019-04-06T09:11:06.307Z,13.14
2019-04-06T09:15:11.233Z,13.26
2019-04-06T09:19:16.017Z,13.38
2019-04-06T09:23:20.256Z,13.40
2019-04-06T09:27:24.484Z,13.47
2019-04-06T09:31:28.797Z,13.55
2019-04-06T09:35:33.020Z,13.61
2019-04-06T09:39:37.284Z,13.70
2019-04-06T09:43:41.453Z,13.79
2019-04-06T09:47:54.563Z,13.75
2019-04-06T09:52:30.161Z,13.72
2019-04-06T09:57:05.503Z,13.81
2019-04-06T10:01:38.067Z,14.01
2019-04-06T10:05:45.453Z,14.26
2019-04-06T10:10:06.167Z,14.39
2019-04-06T10:14:32.689Z,14.46
2019-04-06T10:18:51.021Z,14.47
2019-04-06T10:23:20.758Z,14.47
2019-04-06T10:27:45.224Z,14.33
2019-04-06T10:32:13.103Z,14.17
2019-04-06T10:36:36.393Z,14.18
2019-04-06T10:40:54.751Z,14.16
2019-04-06T10:45:23.767Z,14.17
2019-04-06T10:49:46.050Z,14.17
2019-04-06T10:54:00.162Z,14.14
2019-04-06T10:58:41.573Z,14.25
2019-04-06T11:03:02.904Z,14.43
2019-04-06T11:07:24.863Z,14.64
2019-04-06T11:11:56.416Z,14.88
2019-04-06T11:16:18.742Z,15.12
2019-04-06T11:20:29.658Z,15.13
2019-04-06T11:24:53.358Z,14.93
2019-04-06T11:29:31.739Z,14.78
2019-04-06T11:34:04.049Z,14.66
2019-04-06T11:38:29.955Z,14.67
2019-04-06T11:42:43.780Z,14.68
2019-04-06T11:47:06.674Z,14.76
2019-04-06T11:51:28.797Z,14.86
2019-04-06T11:55:39.848Z,14.84
2019-04-06T12:00:01.849Z,14.76
2019-04-06T12:04:18.738Z,14.83
2019-04-06T12:08:30.809Z,14.84
2019-04-06T12:12:57.022Z,14.83
2019-04-06T12:17:16.730Z,14.78
2019-04-06T12:21:44.514Z,14.76
2019-04-06T12:26:07.051Z,14.87
2019-04-06T12:30:37.437Z,14.84
2019-04-06T12:35:04.174Z,14.78
2019-04-06T12:39:34.264Z,14.80
2019-04-06T12:43:53.296Z,14.82
2019-04-06T12:48:19.678Z,14.75
2019-04-06T12:52:41.933Z,14.85
2019-04-06T12:56:57.952Z,14.94
2019-04-06T13:01:39.450Z,14.94
2019-04-06T13:05:53.121Z,14.96
2019-04-06T13:10:15.286Z,15.02
2019-04-06T13:14:41.329Z,15.11
2019-04-06T13:18:55.622Z,15.08
2019-04-06T13:23:07.078Z,15.06
2019-04-06T13:27:26.631Z,15.00
2019-04-06T13:32:02.069Z,14.92
2019-04-06T13:36:37.493Z,14.86
2019-04-06T13:41:06.700Z,14.83
2019-04-06T13:45:23.537Z,14.87
2019-04-06T13:49:44.896Z,14.90
2019-04-06T13:53:55.857Z,14.92
2019-04-06T13:58:08.151Z,14.97
2019-04-06T14:02:19.836Z,14.99
2019-04-06T14:06:34.384Z,14.97
2019-04-06T14:11:00.379Z,14.96
2019-04-06T14:15:22.666Z,14.97
2019-04-06T14:19:49.256Z,14.95
2019-04-06T14:24:18.310Z,14.91
2019-04-06T14:28:47.488Z,14.89
2019-04-06T14:33:09.596Z,14.86
2019-04-06T14:37:30.870Z,14.87
2019-04-06T14:41:57.600Z,14.82
2019-04-06T14:46:32.010Z,14.79
2019-04-06T14:51:07.729Z,14.75
2019-04-06T14:55:34.456Z,14.72
2019-04-06T14:59:47.545Z,14.69
2019-04-06T15:04:13.980Z,14.71
2019-04-06T15:08:32.923Z,14.68
2019-04-06T15:12:56.611Z,14.73
2019-04-06T15:17:28.949Z,14.77
2019-04-06T15:21:55.061Z,14.79
2019-04-06T15:26:05.474Z,14.80
2019-04-06T15:30:41.867Z,14.83
2019-04-06T15:35:04.151Z,14.87
2019-04-06T15:39:15.317Z,14.86
2019-04-06T15:43:38.705Z,14.86
2019-04-06T15:48:03.640Z,14.86
2019-04-06T15:52:26.233Z,14.83
2019-04-06T15:56:52.876Z,14.81
2019-04-06T16:01:16.609Z,14.77
2019-04-06T16:05:32.993Z,14.79
2019-04-06T16:10:01.312Z,14.78
2019-04-06T16:14:26.037Z,14.73
2019-04-06T16:18:40.611Z,14.73
2019-04-06T16:22:55.677Z,14.69
2019-04-06T16:27:22.122Z,14.67
2019-04-06T16:31:44.570Z,14.67
2019-04-06T16:35:57.336Z,14.68
2019-04-06T16:40:29.144Z,14.68
2019-04-06T16:44:50.921Z,14.71
2019-04-06T16:49:32.550Z,14.71
2019-04-06T16:53:45.990Z,14.68
2019-04-06T16:58:15.451Z,14.67
2019-04-06T17:02:33.534Z,14.62
2019-04-06T17:06:48.283Z,14.60
2019-04-06T17:11:11.835Z,14.55
2019-04-06T17:15:29.916Z,14.56
2019-04-06T17:19:53.276Z,14.48
2019-04-06T17:24:27.078Z,14.41
2019-04-06T17:28:47.465Z,14.35
2019-04-06T17:33:12.689Z,14.22
2019-04-06T17:37:41.901Z,14.13
2019-04-06T17:42:11.303Z,14.06
2019-04-06T17:46:40.570Z,13.99
2019-04-06T17:51:00.960Z,13.91
2019-04-06T17:55:33.984Z,13.82
2019-04-06T17:59:59.006Z,13.76
2019-04-06T18:04:25.032Z,13.69
2019-04-06T18:08:39.623Z,13.60
2019-04-06T18:12:53.411Z,13.49
2019-04-06T18:16:57.637Z,13.36
2019-04-06T18:21:01.842Z,13.29
2019-04-06T18:25:08.138Z,13.20
2019-04-06T18:29:12.364Z,13.08
2019-04-06T18:33:20.411Z,12.97
2019-04-06T18:37:43.608Z,12.91
2019-04-06T18:41:47.791Z,12.83
2019-04-06T18:45:52.131Z,12.72
2019-04-06T18:49:56.281Z,12.61
2019-04-06T18:54:00.575Z,12.53
2019-04-06T18:58:11.737Z,12.42
2019-04-06T19:02:11.234Z,12.35
2019-04-06T19:06:16.229Z,12.21
2019-04-06T19:10:20.886Z,12.21
2019-04-06T19:14:25.917Z,12.19
2019-04-06T19:18:30.727Z,12.15
2019-04-06T19:22:35.094Z,12.08
2019-04-06T19:26:39.248Z,12.01
2019-04-06T19:30:44.432Z,11.95
2019-04-06T19:34:48.779Z,11.90
2019-04-06T19:38:53.057Z,11.88
2019-04-06T19:42:57.450Z,11.80
2019-04-06T19:47:01.649Z,11.76
2019-04-06T19:51:06.122Z,11.71
2019-04-06T19:55:10.548Z,11.66
2019-04-06T19:59:14.742Z,11.60
2019-04-06T20:03:19.147Z,11.55
2019-04-06T20:07:23.519Z,11.47
2019-04-06T20:11:28.220Z,11.47
2019-04-06T20:15:33.547Z,11.38
2019-04-06T20:19:38.043Z,11.29
2019-04-06T20:23:42.876Z,11.29
2019-04-06T20:27:47.518Z,11.26
2019-04-06T20:31:51.940Z,11.20
2019-04-06T20:35:57.018Z,11.13
2019-04-06T20:40:01.856Z,11.07
2019-04-06T20:44:06.400Z,11.00
2019-04-06T20:48:10.625Z,10.93
2019-04-06T20:52:15.088Z,10.85
2019-04-06T20:56:19.685Z,10.77
2019-04-06T21:00:24.051Z,10.74
2019-04-06T21:04:28.278Z,10.68
2019-04-06T21:08:32.474Z,10.60
2019-04-06T21:12:36.956Z,10.54
2019-04-06T21:16:41.155Z,10.53
2019-04-06T21:20:45.404Z,10.54
2019-04-06T21:24:49.605Z,10.52
2019-04-06T21:28:53.830Z,10.47
2019-04-06T21:32:58.011Z,10.41
2019-04-06T21:37:02.248Z,10.28
2019-04-06T21:41:07.017Z,10.18
2019-04-06T21:45:13.091Z,10.09
2019-04-06T21:49:17.859Z,10.04
2019-04-06T21:53:22.243Z,9.98
2019-04-06T21:57:26.422Z,9.93
2019-04-06T22:01:32.026Z,9.85
2019-04-06T22:05:36.343Z,9.76
2019-04-06T22:09:40.482Z,9.71
2019-04-06T22:13:45.279Z,9.71
2019-04-06T22:17:50.525Z,9.71
2019-04-06T22:21:55.397Z,9.71
2019-04-06T22:26:00.406Z,9.67
2019-04-06T22:30:08.002Z,9.59
2019-04-06T22:34:12.574Z,9.54
2019-04-06T22:38:17.082Z,9.49
2019-04-06T22:42:21.412Z,9.45
2019-04-06T22:46:26.229Z,9.41
2019-04-06T22:50:30.548Z,9.39
2019-04-06T22:54:34.819Z,9.37
2019-04-06T22:58:39.033Z,9.35
2019-04-06T23:03:14.698Z,9.35
2019-04-06T23:07:21.761Z,9.38
2019-04-06T23:11:26.062Z,9.39
2019-04-06T23:15:30.261Z,9.42
2019-04-06T23:19:34.508Z,9.45
2019-04-06T23:23:38.733Z,9.47
2019-04-06T23:27:43.040Z,9.49
2019-04-06T23:31:47.187Z,9.47
2019-04-06T23:35:51.739Z,9.46
2019-04-06T23:39:56.205Z,9.46
2019-04-06T23:44:00.902Z,9.42
2019-04-06T23:48:05.965Z,9.43
2019-04-06T23:52:10.448Z,9.45
2019-04-06T23:56:15.160Z,9.47
